Time;durP1;ratioP1;P1;durP2;ratioP2;P2;SDS_P1;SDS_P2;PMS_P1;PMS_P2;Temp;Humidity;BMP_temperature;BMP_pressure;BME280_temperature;BME280_humidity;BME280_pressure;Samples;Min_cycle;Max_cycle;Signal;HPM_P1;HPM_P2
2022/08/01 00:01:57;;;;;;;0.40;0.40;;;;;;;;;;6249173;22;20348;-90
2022/08/01 00:04:23;;;;;;;0.10;0.10;;;;;;;;;;6247017;22;20018;-91
2022/08/01 00:06:49;;;;;;;0.17;0.17;;;;;;;;;;6214142;22;20043;-90
2022/08/01 00:09:15;;;;;;;0.10;0.10;;;;;;;;;;6219484;22;20012;-91
2022/08/01 00:11:42;;;;;;;0.20;0.20;;;;;;;;;;6213171;22;20011;-91
2022/08/01 00:14:09;;;;;;;0.10;0.10;;;;;;;;;;6219793;23;20012;-91
2022/08/01 00:16:35;;;;;;;0.10;0.10;;;;;;;;;;6198764;22;20437;-90
2022/08/01 00:19:01;;;;;;;0.10;0.10;;;;;;;;;;6216799;22;20016;-91
2022/08/01 00:21:28;;;;;;;0.10;0.10;;;;;;;;;;6222565;22;20457;-90
2022/08/01 00:23:55;;;;;;;0.10;0.10;;;;;;;;;;6249802;22;20039;-90
2022/08/01 00:26:22;;;;;;;0.10;0.10;;;;;;;;;;6221180;22;20103;-91
2022/08/01 00:28:48;;;;;;;0.10;0.10;;;;;;;;;;6213537;22;20445;-90
2022/08/01 00:31:16;;;;;;;0.10;0.10;;;;;;;;;;6249530;22;20087;-89
2022/08/01 00:33:43;;;;;;;0.10;0.10;;;;;;;;;;6238116;22;20061;-91
2022/08/01 00:36:10;;;;;;;0.10;0.10;;;;;;;;;;6219895;23;20008;-91
2022/08/01 00:38:36;;;;;;;0.13;0.13;;;;;;;;;;6199424;22;20019;-91
2022/08/01 00:41:02;;;;;;;0.10;0.10;;;;;;;;;;6228453;22;20019;-91
2022/08/01 00:43:28;;;;;;;0.10;0.10;;;;;;;;;;6227918;22;20322;-90
2022/08/01 00:45:54;;;;;;;0.10;0.10;;;;;;;;;;6225109;22;20016;-92
2022/08/01 00:48:20;;;;;;;0.10;0.10;;;;;;;;;;6246472;22;20039;-92
2022/08/01 00:50:46;;;;;;;0.10;0.10;;;;;;;;;;6238501;22;20011;-91
2022/08/01 00:53:16;;;;;;;0.10;0.10;;;;;;;;;;6207052;22;20015;-91
2022/08/01 00:55:42;;;;;;;0.73;0.43;;;;;;;;;;6262818;22;20018;-91
2022/08/01 00:58:07;;;;;;;0.10;0.10;;;;;;;;;;6249514;22;20148;-91
2022/08/01 01:00:34;;;;;;;0.20;0.20;;;;;;;;;;6228657;22;20015;-91
2022/08/01 01:03:00;;;;;;;0.10;0.10;;;;;;;;;;6223986;22;20043;-91
2022/08/01 01:05:26;;;;;;;0.10;0.10;;;;;;;;;;6246880;22;20034;-93
2022/08/01 01:07:52;;;;;;;0.10;0.10;;;;;;;;;;6240293;22;20091;-92
2022/08/01 01:10:23;;;;;;;0.10;0.10;;;;;;;;;;6244968;22;20067;-91
2022/08/01 01:12:55;;;;;;;0.10;0.10;;;;;;;;;;6202113;22;20008;-92
2022/08/01 01:15:31;;;;;;;0.20;0.20;;;;;;;;;;6251677;22;20465;-91
2022/08/01 01:18:04;;;;;;;0.10;0.10;;;;;;;;;;6223613;22;20011;-91
2022/08/01 01:20:50;;;;;;;0.20;0.20;;;;;;;;;;6247650;22;20012;-91
2022/08/01 01:23:16;;;;;;;0.10;0.10;;;;;;;;;;6274866;22;20118;-91
2022/08/01 01:25:42;;;;;;;0.10;0.10;;;;;;;;;;6279857;22;20458;-91
2022/08/01 01:28:08;;;;;;;0.10;0.10;;;;;;;;;;6279763;22;20015;-92
2022/08/01 01:30:34;;;;;;;0.10;0.10;;;;;;;;;;6280033;22;20022;-90
2022/08/01 01:33:00;;;;;;;0.10;0.10;;;;;;;;;;6224083;22;20014;-90
2022/08/01 01:35:27;;;;;;;0.10;0.10;;;;;;;;;;6249861;22;20062;-89
2022/08/01 01:37:56;;;;;;;0.20;0.20;;;;;;;;;;6246602;22;20391;-90
2022/08/01 01:40:22;;;;;;;0.10;0.10;;;;;;;;;;6268766;22;20011;-90
2022/08/01 01:42:48;;;;;;;0.10;0.10;;;;;;;;;;6222691;22;20023;-91
2022/08/01 01:45:14;;;;;;;0.10;0.10;;;;;;;;;;6231617;23;20035;-90
2022/08/01 01:47:40;;;;;;;0.30;0.30;;;;;;;;;;6222357;23;20015;-91
2022/08/01 01:50:06;;;;;;;0.10;0.10;;;;;;;;;;6218684;23;20091;-91
2022/08/01 01:52:32;;;;;;;0.10;0.10;;;;;;;;;;6193305;23;20360;-92
2022/08/01 01:54:58;;;;;;;0.28;0.28;;;;;;;;;;6218911;23;20014;-91
2022/08/01 01:57:24;;;;;;;0.10;0.10;;;;;;;;;;6221289;22;20039;-91
2022/08/01 01:59:50;;;;;;;0.10;0.10;;;;;;;;;;6214410;22;20021;-91
2022/08/01 02:02:16;;;;;;;0.10;0.10;;;;;;;;;;6243270;22;20023;-92
2022/08/01 02:04:44;;;;;;;0.10;0.10;;;;;;;;;;6211885;22;20015;-91
2022/08/01 02:07:11;;;;;;;0.10;0.10;;;;;;;;;;6218921;23;20039;-91
2022/08/01 02:09:37;;;;;;;0.20;0.20;;;;;;;;;;6224085;22;20093;-92
2022/08/01 02:12:04;;;;;;;0.10;0.10;;;;;;;;;;6198854;22;20019;-91
2022/08/01 02:14:30;;;;;;;0.10;0.10;;;;;;;;;;6222304;22;20019;-91
2022/08/01 02:16:57;;;;;;;0.10;0.10;;;;;;;;;;6220711;22;20012;-91
2022/08/01 02:19:23;;;;;;;0.10;0.10;;;;;;;;;;6232835;23;20453;-91
2022/08/01 02:21:52;;;;;;;0.10;0.10;;;;;;;;;;6221319;23;20050;-91
2022/08/01 02:24:27;;;;;;;0.20;0.20;;;;;;;;;;6248994;22;20016;-91
2022/08/01 02:26:54;;;;;;;0.10;0.10;;;;;;;;;;6258080;23;20016;-90
2022/08/01 02:29:32;;;;;;;0.10;0.10;;;;;;;;;;6204791;22;20012;-92
2022/08/01 02:31:58;;;;;;;0.10;0.10;;;;;;;;;;6216997;22;20042;-91
2022/08/01 02:34:24;;;;;;;0.10;0.10;;;;;;;;;;6220275;23;20012;-90
2022/08/01 02:36:50;;;;;;;0.10;0.10;;;;;;;;;;6210230;23;20064;-91
2022/08/01 02:39:16;;;;;;;0.10;0.10;;;;;;;;;;6220708;22;20062;-91
2022/08/01 02:41:49;;;;;;;0.10;0.10;;;;;;;;;;6258537;22;20019;-91
2022/08/01 02:44:14;;;;;;;;;;;;;;;;;;6226083;22;20012;-90
2022/08/01 02:46:45;;;;;;;0.10;0.10;;;;;;;;;;6281861;22;20369;-91
2022/08/01 02:49:11;;;;;;;0.20;0.20;;;;;;;;;;6225563;22;20092;-91
2022/08/01 02:51:37;;;;;;;0.10;0.10;;;;;;;;;;6230705;22;20011;-91
2022/08/01 02:54:04;;;;;;;0.10;0.10;;;;;;;;;;6225949;22;20014;-92
2022/08/01 02:56:36;;;;;;;0.10;0.10;;;;;;;;;;6254456;22;20018;-92
2022/08/01 02:59:03;;;;;;;0.10;0.10;;;;;;;;;;6225444;22;20157;-92
2022/08/01 03:01:29;;;;;;;0.10;0.10;;;;;;;;;;6251999;22;20043;-93
2022/08/01 03:03:55;;;;;;;0.10;0.10;;;;;;;;;;6225797;22;20016;-91
2022/08/01 03:06:22;;;;;;;0.10;0.10;;;;;;;;;;6227138;22;20020;-91
2022/08/01 03:08:48;;;;;;;0.10;0.10;;;;;;;;;;6280299;22;20051;-91
2022/08/01 03:11:15;;;;;;;0.10;0.10;;;;;;;;;;6225126;22;20011;-91
2022/08/01 03:13:42;;;;;;;0.10;0.10;;;;;;;;;;6224989;22;20081;-91
2022/08/01 03:16:08;;;;;;;0.10;0.10;;;;;;;;;;6225363;22;20050;-91
2022/08/01 03:18:34;;;;;;;0.10;0.10;;;;;;;;;;6229206;22;20076;-91
2022/08/01 03:21:00;;;;;;;0.10;0.10;;;;;;;;;;6225189;22;20011;-91
2022/08/01 03:23:26;;;;;;;0.10;0.10;;;;;;;;;;6250483;22;20076;-91
2022/08/01 03:25:53;;;;;;;0.10;0.10;;;;;;;;;;6225463;22;20071;-92
2022/08/01 03:28:19;;;;;;;0.10;0.10;;;;;;;;;;6221942;22;20086;-91
2022/08/01 03:30:45;;;;;;;0.20;0.20;;;;;;;;;;6250834;22;20039;-92
2022/08/01 03:33:11;;;;;;;0.10;0.10;;;;;;;;;;6219094;22;20034;-92
2022/08/01 03:35:38;;;;;;;0.10;0.10;;;;;;;;;;6254757;22;20007;-92
2022/08/01 03:38:04;;;;;;;0.10;0.10;;;;;;;;;;6224859;22;20007;-91
2022/08/01 03:40:39;;;;;;;0.10;0.10;;;;;;;;;;6223001;22;20014;-91
2022/08/01 03:43:14;;;;;;;0.10;0.10;;;;;;;;;;6243366;22;20345;-91
2022/08/01 03:45:41;;;;;;;0.10;0.10;;;;;;;;;;6187864;22;20445;-91
2022/08/01 03:48:31;;;;;;;0.10;0.10;;;;;;;;;;6194763;23;20019;-92
2022/08/01 03:50:57;;;;;;;0.10;0.10;;;;;;;;;;6223871;22;20547;-91
2022/08/01 03:53:23;;;;;;;0.10;0.10;;;;;;;;;;6200294;22;20051;-91
2022/08/01 03:55:50;;;;;;;0.10;0.10;;;;;;;;;;6214861;22;20122;-91
2022/08/01 03:58:16;;;;;;;0.10;0.10;;;;;;;;;;6224439;22;20012;-91
2022/08/01 04:00:42;;;;;;;0.10;0.10;;;;;;;;;;6212548;22;20251;-90
2022/08/01 04:03:08;;;;;;;0.10;0.10;;;;;;;;;;6224646;22;20315;-90
2022/08/01 04:05:35;;;;;;;0.20;0.20;;;;;;;;;;6223716;22;20348;-90
2022/08/01 04:08:02;;;;;;;0.10;0.10;;;;;;;;;;6224199;22;20012;-90
2022/08/01 04:10:28;;;;;;;0.20;0.20;;;;;;;;;;6197480;22;20441;-90
2022/08/01 04:12:54;;;;;;;0.10;0.10;;;;;;;;;;6200027;22;20014;-91
2022/08/01 04:15:20;;;;;;;0.10;0.10;;;;;;;;;;6196002;22;20044;-91
2022/08/01 04:17:46;;;;;;;0.10;0.10;;;;;;;;;;6224639;22;20020;-91
2022/08/01 04:20:12;;;;;;;0.10;0.10;;;;;;;;;;6194920;23;20012;-91
2022/08/01 04:22:38;;;;;;;0.10;0.10;;;;;;;;;;6199591;22;20023;-91
2022/08/01 04:25:05;;;;;;;0.10;0.10;;;;;;;;;;6199482;22;20015;-91
2022/08/01 04:27:31;;;;;;;0.10;0.10;;;;;;;;;;6223611;22;20074;-90
2022/08/01 04:29:58;;;;;;;0.10;0.10;;;;;;;;;;6199111;22;20012;-91
2022/08/01 04:32:24;;;;;;;0.20;0.20;;;;;;;;;;6221848;22;20442;-91
2022/08/01 04:34:50;;;;;;;0.10;0.10;;;;;;;;;;6199716;22;20116;-91
2022/08/01 04:37:16;;;;;;;0.10;0.10;;;;;;;;;;6219745;22;20036;-90
2022/08/01 04:39:42;;;;;;;0.10;0.10;;;;;;;;;;6224176;22;20448;-91
2022/08/01 04:42:08;;;;;;;0.10;0.10;;;;;;;;;;6243857;22;20028;-90
2022/08/01 04:44:34;;;;;;;0.10;0.10;;;;;;;;;;6249657;22;20023;-91
2022/08/01 04:47:02;;;;;;;0.10;0.10;;;;;;;;;;6223866;22;20069;-91
2022/08/01 04:49:32;;;;;;;0.10;0.10;;;;;;;;;;6250173;22;20023;-90
2022/08/01 04:51:59;;;;;;;0.10;0.10;;;;;;;;;;6249511;22;20337;-91
2022/08/01 04:54:26;;;;;;;0.10;0.10;;;;;;;;;;6224448;22;20061;-91
2022/08/01 04:56:54;;;;;;;0.10;0.10;;;;;;;;;;6249524;22;20019;-91
2022/08/01 05:02:04;;;;;;;0.10;0.10;;;;;;;;;;6250115;22;20019;-92
2022/08/01 05:04:30;;;;;;;0.10;0.10;;;;;;;;;;6224267;22;20014;-91
2022/08/01 05:06:56;;;;;;;0.10;0.10;;;;;;;;;;6249310;22;20011;-91
2022/08/01 05:09:22;;;;;;;0.10;0.10;;;;;;;;;;6223866;22;20070;-91
2022/08/01 05:11:48;;;;;;;0.10;0.10;;;;;;;;;;6249552;22;20019;-90
2022/08/01 05:14:15;;;;;;;0.10;0.10;;;;;;;;;;6249678;22;20019;-91
2022/08/01 05:16:41;;;;;;;0.10;0.10;;;;;;;;;;6223878;22;20050;-91
2022/08/01 05:19:08;;;;;;;0.25;0.25;;;;;;;;;;6222868;22;20015;-90
2022/08/01 05:21:35;;;;;;;0.10;0.10;;;;;;;;;;6223821;22;20049;-91
2022/08/01 05:24:02;;;;;;;0.10;0.10;;;;;;;;;;6224054;22;20048;-91
2022/08/01 05:26:28;;;;;;;0.10;0.10;;;;;;;;;;6249448;22;20016;-93
2022/08/01 05:28:55;;;;;;;0.10;0.10;;;;;;;;;;6224664;22;20531;-93
2022/08/01 05:31:21;;;;;;;0.10;0.10;;;;;;;;;;6224038;22;20016;-92
2022/08/01 05:33:47;;;;;;;0.13;0.13;;;;;;;;;;6224190;22;20008;-92
2022/08/01 05:36:13;;;;;;;0.10;0.10;;;;;;;;;;6249496;22;20011;-91
2022/08/01 05:38:40;;;;;;;0.10;0.10;;;;;;;;;;6223945;22;20016;-95
2022/08/01 05:41:06;;;;;;;0.10;0.10;;;;;;;;;;6224141;22;20388;-91
2022/08/01 05:43:32;;;;;;;0.10;0.10;;;;;;;;;;6249428;22;20011;-89
2022/08/01 05:45:58;;;;;;;0.10;0.10;;;;;;;;;;6223649;22;20016;-89
2022/08/01 05:48:24;;;;;;;0.20;0.20;;;;;;;;;;6248743;22;20012;-90
2022/08/01 05:50:51;;;;;;;0.10;0.10;;;;;;;;;;6223540;22;20012;-92
2022/08/01 05:53:17;;;;;;;0.10;0.10;;;;;;;;;;6248548;22;20007;-91
2022/08/01 05:55:43;;;;;;;0.10;0.10;;;;;;;;;;6249369;22;20054;-90
2022/08/01 05:58:09;;;;;;;0.10;0.10;;;;;;;;;;6223642;22;20030;-93
2022/08/01 06:00:35;;;;;;;0.10;0.10;;;;;;;;;;6224772;22;20011;-92
2022/08/01 06:03:11;;;;;;;0.17;0.17;;;;;;;;;;6275081;22;20019;-89
2022/08/01 06:05:37;;;;;;;0.10;0.10;;;;;;;;;;6248558;22;20008;-89
2022/08/01 06:08:06;;;;;;;0.10;0.10;;;;;;;;;;6248512;22;20018;-90
2022/08/01 06:10:32;;;;;;;0.17;0.17;;;;;;;;;;6249309;22;20012;-90
2022/08/01 06:12:59;;;;;;;0.10;0.10;;;;;;;;;;6223802;22;20007;-90
2022/08/01 06:15:25;;;;;;;0.10;0.10;;;;;;;;;;6223692;22;20254;-91
2022/08/01 06:17:51;;;;;;;0.10;0.10;;;;;;;;;;6223527;22;20012;-91
2022/08/01 06:20:17;;;;;;;0.10;0.10;;;;;;;;;;6223877;22;20011;-93
2022/08/01 06:22:43;;;;;;;0.10;0.10;;;;;;;;;;6224379;22;20325;-92
2022/08/01 06:25:09;;;;;;;0.10;0.10;;;;;;;;;;6249864;22;20016;-92
2022/08/01 06:27:35;;;;;;;0.10;0.10;;;;;;;;;;6224222;22;20502;-92
2022/08/01 06:30:01;;;;;;;0.10;0.10;;;;;;;;;;6249081;22;20019;-92
2022/08/01 06:32:28;;;;;;;0.10;0.10;;;;;;;;;;6223978;22;20039;-91
2022/08/01 06:34:54;;;;;;;0.10;0.10;;;;;;;;;;6223875;22;20008;-92
2022/08/01 06:37:21;;;;;;;0.10;0.10;;;;;;;;;;6223768;22;20090;-91
2022/08/01 06:39:47;;;;;;;0.10;0.10;;;;;;;;;;6223691;22;20034;-89
2022/08/01 06:42:14;;;;;;;0.10;0.10;;;;;;;;;;6248793;22;20024;-92
2022/08/01 06:44:40;;;;;;;0.10;0.10;;;;;;;;;;6223357;22;20016;-90
2022/08/01 06:47:06;;;;;;;0.10;0.10;;;;;;;;;;6220971;22;20015;-90
2022/08/01 06:49:32;;;;;;;0.10;0.10;;;;;;;;;;6248005;22;20035;-89
2022/08/01 06:51:58;;;;;;;0.10;0.10;;;;;;;;;;6223061;22;20101;-89
2022/08/01 06:54:24;;;;;;;0.10;0.10;;;;;;;;;;6248128;22;20012;-89
2022/08/01 06:56:50;;;;;;;0.10;0.10;;;;;;;;;;6222750;22;20008;-90
2022/08/01 06:59:16;;;;;;;0.10;0.10;;;;;;;;;;6248305;22;20030;-90
2022/08/01 07:01:42;;;;;;;0.10;0.10;;;;;;;;;;6222859;22;20110;-90
2022/08/01 07:04:08;;;;;;;0.10;0.10;;;;;;;;;;6248504;22;20061;-88
2022/08/01 07:06:34;;;;;;;0.10;0.10;;;;;;;;;;6248494;22;20015;-91
2022/08/01 07:09:01;;;;;;;0.10;0.10;;;;;;;;;;6247948;22;20019;-90
2022/08/01 07:11:27;;;;;;;0.10;0.10;;;;;;;;;;6224734;22;20015;-91
2022/08/01 07:13:53;;;;;;;0.10;0.10;;;;;;;;;;6225298;22;20008;-89
2022/08/01 07:16:19;;;;;;;0.10;0.10;;;;;;;;;;6224670;22;20086;-90
2022/08/01 07:18:45;;;;;;;0.10;0.10;;;;;;;;;;6224516;22;20016;-89
2022/08/01 07:21:11;;;;;;;0.10;0.10;;;;;;;;;;6224843;22;20015;-90
2022/08/01 07:23:38;;;;;;;0.10;0.10;;;;;;;;;;6249847;22;20016;-90
2022/08/01 07:26:04;;;;;;;0.10;0.10;;;;;;;;;;6249730;22;20464;-90
2022/08/01 07:28:31;;;;;;;0.10;0.10;;;;;;;;;;6224033;22;20321;-91
2022/08/01 07:30:57;;;;;;;0.10;0.10;;;;;;;;;;6224186;22;20008;-91
2022/08/01 07:33:23;;;;;;;0.20;0.20;;;;;;;;;;6224390;22;20099;-90
2022/08/01 07:35:49;;;;;;;0.10;0.10;;;;;;;;;;6224771;22;20038;-89
2022/08/01 07:38:16;;;;;;;0.10;0.10;;;;;;;;;;6249328;22;20007;-89
2022/08/01 07:40:43;;;;;;;0.10;0.10;;;;;;;;;;6223783;22;20032;-89
2022/08/01 07:43:09;;;;;;;0.10;0.10;;;;;;;;;;6224067;22;20070;-88
2022/08/01 07:45:35;;;;;;;0.10;0.10;;;;;;;;;;6224116;22;20016;-89
2022/08/01 07:48:04;;;;;;;0.10;0.10;;;;;;;;;;6224015;22;20008;-89
2022/08/01 07:50:30;;;;;;;0.10;0.10;;;;;;;;;;6224425;22;20467;-89
2022/08/01 07:52:56;;;;;;;0.10;0.10;;;;;;;;;;6223989;22;20449;-91
2022/08/01 07:55:22;;;;;;;0.10;0.10;;;;;;;;;;6249370;22;20091;-90
2022/08/01 07:57:48;;;;;;;0.10;0.10;;;;;;;;;;6223780;22;20333;-90
2022/08/01 08:00:14;;;;;;;0.25;0.22;;;;;;;;;;6224233;22;20112;-89
2022/08/01 08:02:40;;;;;;;0.10;0.10;;;;;;;;;;6224064;22;20042;-91
2022/08/01 08:05:07;;;;;;;0.20;0.20;;;;;;;;;;6224224;22;20464;-91
2022/08/01 08:07:33;;;;;;;0.10;0.10;;;;;;;;;;6224095;22;20012;-90
2022/08/01 08:09:59;;;;;;;0.10;0.10;;;;;;;;;;6224166;22;20329;-90
2022/08/01 08:12:25;;;;;;;0.10;0.10;;;;;;;;;;6224160;22;20484;-91
2022/08/01 08:14:51;;;;;;;0.10;0.10;;;;;;;;;;6224280;22;20333;-87
2022/08/01 08:17:17;;;;;;;0.10;0.10;;;;;;;;;;6249287;22;20441;-89
2022/08/01 08:19:44;;;;;;;0.10;0.10;;;;;;;;;;6224220;22;20007;-90
2022/08/01 08:22:10;;;;;;;0.10;0.10;;;;;;;;;;6249824;22;20323;-89
2022/08/01 08:24:36;;;;;;;0.10;0.10;;;;;;;;;;6223937;22;20095;-89
2022/08/01 08:27:02;;;;;;;0.52;0.20;;;;;;;;;;6224162;22;20306;-93
2022/08/01 08:29:29;;;;;;;0.10;0.10;;;;;;;;;;6224416;22;20026;-92
2022/08/01 08:31:55;;;;;;;0.10;0.10;;;;;;;;;;6224454;22;20019;-93
2022/08/01 08:34:21;;;;;;;0.55;0.20;;;;;;;;;;6223933;22;20012;-94
2022/08/01 08:36:48;;;;;;;0.10;0.10;;;;;;;;;;6224267;22;20502;-91
2022/08/01 08:39:14;;;;;;;0.10;0.10;;;;;;;;;;6224195;22;20015;-92
2022/08/01 08:41:40;;;;;;;0.20;0.20;;;;;;;;;;6223697;22;20086;-92
2022/08/01 08:44:06;;;;;;;0.35;0.20;;;;;;;;;;6223614;22;20041;-91
2022/08/01 08:46:32;;;;;;;0.20;0.20;;;;;;;;;;6223601;22;20034;-91
2022/08/01 08:48:58;;;;;;;0.10;0.10;;;;;;;;;;6223393;22;20015;-90
2022/08/01 08:51:26;;;;;;;0.10;0.10;;;;;;;;;;6249221;22;20039;-93
2022/08/01 08:53:54;;;;;;;0.10;0.10;;;;;;;;;;6223402;22;20007;-92
2022/08/01 08:56:20;;;;;;;0.10;0.10;;;;;;;;;;6249350;22;20026;-93
2022/08/01 08:58:46;;;;;;;0.10;0.10;;;;;;;;;;6223868;22;20070;-93
2022/08/01 09:01:12;;;;;;;0.10;0.10;;;;;;;;;;6225909;22;20453;-95
2022/08/01 09:03:38;;;;;;;1.55;0.20;;;;;;;;;;6222278;22;20273;-92
2022/08/01 09:06:04;;;;;;;0.10;0.10;;;;;;;;;;6223906;22;20018;-92
2022/08/01 09:08:30;;;;;;;0.10;0.10;;;;;;;;;;6223376;22;20043;-91
2022/08/01 09:10:56;;;;;;;0.10;0.10;;;;;;;;;;6223636;22;20038;-92
2022/08/01 09:13:22;;;;;;;0.10;0.10;;;;;;;;;;6223337;22;20018;-92
2022/08/01 09:15:56;;;;;;;0.20;0.20;;;;;;;;;;6248440;22;20011;-92
2022/08/01 09:18:34;;;;;;;0.10;0.10;;;;;;;;;;6221798;22;20442;-92
2022/08/01 09:21:06;;;;;;;0.10;0.10;;;;;;;;;;6248407;22;20087;-92
2022/08/01 09:23:33;;;;;;;0.10;0.10;;;;;;;;;;6248327;22;20011;-91
2022/08/01 09:25:59;;;;;;;0.10;0.10;;;;;;;;;;6248480;22;20008;-89
2022/08/01 09:28:30;;;;;;;0.10;0.10;;;;;;;;;;6223564;22;20095;-89
2022/08/01 09:30:56;;;;;;;0.13;0.13;;;;;;;;;;6223510;22;20437;-91
2022/08/01 09:33:22;;;;;;;0.10;0.10;;;;;;;;;;6221607;22;20504;-90
2022/08/01 09:35:55;;;;;;;0.10;0.10;;;;;;;;;;6248252;22;20445;-88
2022/08/01 09:38:21;;;;;;;0.10;0.10;;;;;;;;;;6222794;22;20457;-90
2022/08/01 09:40:57;;;;;;;0.10;0.10;;;;;;;;;;6222899;22;20043;-90
2022/08/01 09:43:24;;;;;;;0.10;0.10;;;;;;;;;;6223283;22;20008;-91
2022/08/01 09:45:50;;;;;;;0.10;0.10;;;;;;;;;;6222720;22;20400;-92
2022/08/01 09:48:16;;;;;;;0.10;0.10;;;;;;;;;;6222618;22;20090;-91
2022/08/01 09:50:43;;;;;;;0.10;0.10;;;;;;;;;;6223494;22;20016;-90
2022/08/01 09:53:09;;;;;;;0.10;0.10;;;;;;;;;;6248405;22;20062;-92
2022/08/01 09:55:35;;;;;;;0.10;0.10;;;;;;;;;;6248004;22;20034;-91
2022/08/01 09:58:04;;;;;;;0.10;0.10;;;;;;;;;;6223111;22;20016;-93
2022/08/01 10:00:30;;;;;;;0.20;0.20;;;;;;;;;;6222642;22;20018;-92
2022/08/01 10:02:56;;;;;;;0.10;0.10;;;;;;;;;;6221231;22;20008;-92
2022/08/01 10:05:33;;;;;;;0.15;0.15;;;;;;;;;;6223398;22;20475;-93
2022/08/01 10:08:01;;;;;;;0.10;0.10;;;;;;;;;;6224500;22;20018;-92
2022/08/01 10:10:27;;;;;;;0.10;0.10;;;;;;;;;;6222495;22;20019;-93
2022/08/01 10:12:53;;;;;;;0.10;0.10;;;;;;;;;;6223058;22;20018;-93
2022/08/01 10:15:20;;;;;;;0.13;0.13;;;;;;;;;;6221451;22;20007;-91
2022/08/01 10:17:56;;;;;;;0.10;0.10;;;;;;;;;;6223084;22;20050;-93
2022/08/01 10:20:23;;;;;;;0.10;0.10;;;;;;;;;;6222989;22;20016;-93
2022/08/01 10:22:49;;;;;;;0.10;0.10;;;;;;;;;;6223359;22;20012;-93
2022/08/01 10:25:17;;;;;;;0.10;0.10;;;;;;;;;;6222766;22;20054;-94
2022/08/01 10:27:46;;;;;;;0.40;0.20;;;;;;;;;;6223209;22;20019;-94
2022/08/01 10:30:13;;;;;;;0.20;0.20;;;;;;;;;;6223150;22;20016;-93
2022/08/01 10:32:39;;;;;;;0.10;0.10;;;;;;;;;;6248310;22;20008;-94
2022/08/01 10:35:05;;;;;;;0.10;0.10;;;;;;;;;;6222807;22;20312;-93
2022/08/01 10:37:31;;;;;;;0.10;0.10;;;;;;;;;;6222714;22;20011;-93
2022/08/01 10:39:57;;;;;;;0.10;0.10;;;;;;;;;;6222893;22;20326;-93
2022/08/01 10:42:23;;;;;;;0.10;0.10;;;;;;;;;;6222417;22;20026;-90
2022/08/01 10:44:49;;;;;;;0.10;0.10;;;;;;;;;;6223712;22;20020;-90
2022/08/01 10:47:19;;;;;;;0.10;0.10;;;;;;;;;;6226145;22;20023;-89
2022/08/01 10:49:48;;;;;;;0.10;0.10;;;;;;;;;;6225412;22;20018;-91
2022/08/01 10:52:15;;;;;;;0.10;0.10;;;;;;;;;;6224899;22;20101;-92
2022/08/01 10:54:42;;;;;;;0.10;0.10;;;;;;;;;;6225142;22;20016;-90
2022/08/01 10:57:08;;;;;;;0.20;0.20;;;;;;;;;;6250501;22;20357;-93
2022/08/01 10:59:39;;;;;;;0.10;0.10;;;;;;;;;;6225111;22;20085;-94
2022/08/01 11:02:05;;;;;;;;;;;;;;;;;;6226588;22;20479;-92
2022/08/01 11:04:36;;;;;;;0.20;0.20;;;;;;;;;;6249735;22;19915;-90
2022/08/01 11:07:08;;;;;;;0.10;0.10;;;;;;;;;;6225020;22;20020;-92
2022/08/01 11:09:44;;;;;;;0.10;0.10;;;;;;;;;;6224646;22;20060;-92
2022/08/01 11:12:15;;;;;;;0.10;0.10;;;;;;;;;;6224864;22;20087;-94
2022/08/01 11:15:00;;;;;;;0.10;0.10;;;;;;;;;;6225747;22;20012;-91
2022/08/01 11:17:39;;;;;;;0.20;0.20;;;;;;;;;;6224850;22;20007;-91
2022/08/01 11:20:12;;;;;;;0.10;0.10;;;;;;;;;;6224456;22;20020;-91
2022/08/01 11:22:56;;;;;;;0.20;0.20;;;;;;;;;;6224894;22;20015;-92
2022/08/01 11:25:24;;;;;;;0.15;0.15;;;;;;;;;;6249789;22;20146;-93
2022/08/01 11:27:49;;;;;;;0.20;0.20;;;;;;;;;;6225012;22;20016;-93
2022/08/01 11:30:15;;;;;;;0.20;0.20;;;;;;;;;;6224961;22;20019;-94
2022/08/01 11:32:52;;;;;;;0.10;0.10;;;;;;;;;;6224786;22;20069;-93
2022/08/01 11:35:20;;;;;;;0.20;0.20;;;;;;;;;;6223889;22;20468;-93
2022/08/01 11:37:47;;;;;;;0.10;0.10;;;;;;;;;;6225193;22;20062;-93
2022/08/01 11:40:22;;;;;;;0.10;0.10;;;;;;;;;;6224737;22;20023;-93
2022/08/01 11:42:48;;;;;;;0.10;0.10;;;;;;;;;;6249909;22;20090;-93
2022/08/01 11:45:14;;;;;;;0.10;0.10;;;;;;;;;;6219720;22;20441;-93
2022/08/01 11:47:45;;;;;;;0.10;0.10;;;;;;;;;;6212396;22;20011;-91
2022/08/01 11:50:31;;;;;;;0.10;0.10;;;;;;;;;;6224187;22;20073;-89
2022/08/01 11:53:01;;;;;;;0.10;0.10;;;;;;;;;;6222454;22;20046;-91
2022/08/01 11:55:28;;;;;;;0.15;0.15;;;;;;;;;;6247104;22;20018;-89
2022/08/01 11:58:01;;;;;;;0.10;0.10;;;;;;;;;;6214045;22;20453;-89
2022/08/01 12:00:27;;;;;;;0.10;0.10;;;;;;;;;;6249232;22;20022;-90
2022/08/01 12:03:03;;;;;;;0.10;0.10;;;;;;;;;;6239537;22;20016;-89
2022/08/01 12:05:30;;;;;;;0.10;0.10;;;;;;;;;;6223954;22;20015;-90
2022/08/01 12:07:56;;;;;;;0.10;0.10;;;;;;;;;;6240368;22;20022;-91
2022/08/01 12:10:23;;;;;;;0.10;0.10;;;;;;;;;;6223516;22;20051;-91
2022/08/01 12:12:50;;;;;;;0.10;0.10;;;;;;;;;;6213634;22;20042;-91
2022/08/01 12:15:16;;;;;;;0.10;0.10;;;;;;;;;;6248727;22;20341;-91
2022/08/01 12:17:43;;;;;;;0.10;0.10;;;;;;;;;;6211739;22;20322;-92
2022/08/01 12:20:10;;;;;;;0.10;0.10;;;;;;;;;;6224240;22;20022;-91
2022/08/01 12:22:36;;;;;;;0.17;0.17;;;;;;;;;;6223311;22;20012;-91
2022/08/01 12:25:07;;;;;;;0.10;0.10;;;;;;;;;;6216333;22;20027;-92
2022/08/01 12:27:33;;;;;;;0.10;0.10;;;;;;;;;;6249393;22;20012;-92
2022/08/01 12:29:59;;;;;;;0.10;0.10;;;;;;;;;;6215238;22;20047;-91
2022/08/01 12:32:30;;;;;;;0.20;0.20;;;;;;;;;;6223777;22;20014;-92
2022/08/01 12:34:56;;;;;;;0.10;0.10;;;;;;;;;;6214878;22;20070;-89
2022/08/01 12:37:23;;;;;;;0.15;0.15;;;;;;;;;;6249098;22;20007;-89
2022/08/01 12:39:49;;;;;;;0.10;0.10;;;;;;;;;;6213542;22;20023;-90
2022/08/01 12:42:15;;;;;;;0.10;0.10;;;;;;;;;;6249084;22;20015;-89
2022/08/01 12:44:42;;;;;;;0.10;0.10;;;;;;;;;;6237059;22;20049;-88
2022/08/01 12:47:08;;;;;;;0.17;0.17;;;;;;;;;;6249365;22;20341;-91
2022/08/01 12:49:37;;;;;;;0.10;0.10;;;;;;;;;;6223525;22;20015;-89
2022/08/01 12:52:04;;;;;;;0.10;0.10;;;;;;;;;;6216497;22;20043;-89
2022/08/01 12:54:30;;;;;;;0.10;0.10;;;;;;;;;;6248823;22;20007;-89
2022/08/01 12:56:56;;;;;;;0.10;0.10;;;;;;;;;;6214685;22;20082;-90
2022/08/01 12:59:24;;;;;;;0.10;0.10;;;;;;;;;;6223439;22;20012;-90
2022/08/01 13:01:50;;;;;;;0.10;0.10;;;;;;;;;;6218485;23;20019;-90
2022/08/01 13:04:16;;;;;;;0.10;0.10;;;;;;;;;;6215108;22;20023;-91
2022/08/01 13:06:42;;;;;;;0.20;0.20;;;;;;;;;;6237164;22;20015;-90
2022/08/01 13:09:10;;;;;;;0.10;0.10;;;;;;;;;;6223377;22;20023;-90
2022/08/01 13:11:36;;;;;;;0.10;0.10;;;;;;;;;;6223487;22;20011;-90
2022/08/01 13:14:02;;;;;;;0.10;0.10;;;;;;;;;;6215847;22;20322;-89
2022/08/01 13:16:28;;;;;;;0.10;0.10;;;;;;;;;;6248292;22;20012;-89
2022/08/01 13:18:55;;;;;;;0.10;0.10;;;;;;;;;;6213421;22;20016;-89
2022/08/01 13:21:27;;;;;;;0.10;0.10;;;;;;;;;;6248091;22;20514;-89
2022/08/01 13:24:10;;;;;;;0.20;0.20;;;;;;;;;;6213588;22;20058;-90
2022/08/01 13:26:43;;;;;;;0.10;0.10;;;;;;;;;;6222956;22;20089;-89
2022/08/01 13:29:10;;;;;;;0.10;0.10;;;;;;;;;;6222470;22;20012;-89
2022/08/01 13:31:37;;;;;;;0.30;0.30;;;;;;;;;;6222584;22;20008;-90
2022/08/01 13:34:02;;;;;;;0.20;0.20;;;;;;;;;;6240593;22;20011;-90
2022/08/01 13:36:29;;;;;;;0.10;0.10;;;;;;;;;;6222947;22;20007;-90
2022/08/01 13:41:40;;;;;;;0.20;0.20;;;;;;;;;;6247721;22;20027;-89
2022/08/01 13:44:08;;;;;;;0.10;0.10;;;;;;;;;;6217805;23;20046;-88
2022/08/01 13:46:34;;;;;;;0.10;0.10;;;;;;;;;;6197227;22;20054;-89
2022/08/01 13:49:00;;;;;;;0.10;0.10;;;;;;;;;;6248142;22;20012;-89
2022/08/01 13:51:26;;;;;;;0.10;0.10;;;;;;;;;;6245408;22;20333;-88
2022/08/01 13:53:52;;;;;;;0.20;0.20;;;;;;;;;;6213324;22;20019;-88
2022/08/01 13:56:19;;;;;;;0.10;0.10;;;;;;;;;;6222949;22;20012;-89
2022/08/01 13:58:45;;;;;;;0.25;0.25;;;;;;;;;;6237066;22;20019;-89
2022/08/01 14:01:11;;;;;;;0.10;0.10;;;;;;;;;;6247988;22;20027;-89
2022/08/01 14:03:37;;;;;;;0.10;0.10;;;;;;;;;;6247914;22;20019;-90
2022/08/01 14:06:03;;;;;;;0.10;0.10;;;;;;;;;;6240606;22;20016;-89
2022/08/01 14:08:29;;;;;;;0.20;0.20;;;;;;;;;;6247342;22;20045;-89
2022/08/01 14:10:58;;;;;;;0.20;0.20;;;;;;;;;;6213654;22;20328;-89
2022/08/01 14:13:24;;;;;;;0.10;0.10;;;;;;;;;;6222614;22;20145;-88
2022/08/01 14:15:50;;;;;;;0.10;0.10;;;;;;;;;;6212769;22;20083;-90
2022/08/01 14:18:16;;;;;;;0.10;0.10;;;;;;;;;;6247857;22;20008;-89
2022/08/01 14:20:42;;;;;;;0.10;0.10;;;;;;;;;;6238843;22;20022;-89
2022/08/01 14:23:08;;;;;;;0.10;0.10;;;;;;;;;;6225727;22;20366;-92
2022/08/01 14:25:35;;;;;;;0.20;0.20;;;;;;;;;;6225744;22;20022;-93
2022/08/01 14:28:01;;;;;;;0.10;0.10;;;;;;;;;;6217915;22;20044;-91
2022/08/01 14:30:27;;;;;;;0.20;0.20;;;;;;;;;;6225866;22;20015;-93
2022/08/01 14:32:53;;;;;;;0.13;0.13;;;;;;;;;;6216430;22;20008;-91
2022/08/01 14:35:19;;;;;;;0.10;0.10;;;;;;;;;;6226172;22;20012;-91
2022/08/01 14:37:45;;;;;;;0.20;0.20;;;;;;;;;;6214481;22;20014;-92
2022/08/01 14:40:11;;;;;;;0.10;0.10;;;;;;;;;;6225969;22;20016;-91
2022/08/01 14:42:38;;;;;;;0.20;0.20;;;;;;;;;;6251455;22;20023;-92
2022/08/01 14:45:08;;;;;;;6.45;0.30;;;;;;;;;;6243549;22;20022;-90
2022/08/01 14:47:34;;;;;;;0.10;0.10;;;;;;;;;;6225797;22;20022;-92
2022/08/01 14:50:01;;;;;;;0.10;0.10;;;;;;;;;;6218118;22;20135;-90